Sugar City, Idaho
Current Conditions -  °F | °C
As of 5:53 PM on Saturday 22 Nov 2014 (Local Time) from KRXE Reporting Station
Clear Clear  
Wind Chill: 28°   Ceiling: Unl
Heat Index: 34°   Visibility: 10mi
Dew Point: 31°   Wind: 7mph
Humidity: 89%   Direction: 180°S
Pressure: 29.7"   Gusts: NA
Location:  43.87°N, 111.75°W
Report Text: KRXE 230053Z AUTO 18006KT 10SM CLR 01/M01 A2970 RMK AO2 SLP071 T00111006
Loading
Personal Weather Stations






























Interactive Weather Map New forecast layout! Learn more

10-Day Weather Forecast

Advertisements
Track Severe Weather on mobile